Jury M — 3EOG2 — position and weather

sailwx.info

Track history (hours):
 
Tides and Currents Weather Stations Pressure Air Temp Water Temp Dewpoint Dewpoint Depression Visibility Wind Speed Wind Dir Waves Ship Positions

Jury M

Last reported at 2015-Jul-31 02:21 UTC. Time now 2015-Aug-01 11:50 UTC.
Position N 35°34' W 136°07'.

Length 182 m; draft 11.8 m.

Type: Cargo ship. MMSI: 355723000.

Date/timePositionNaut miles runAvg speedWind from/ knotsBaromVisibWave heightAir tempDewpointWater temp
2015-Jul-31 02:21N 35°34' W 136°07'41810.4
2015-Jul-29 10:15N 32°09' W 128°48'36 9.7
2015-Jul-29 06:33N 31°50' W 128°12'10 9.7
2015-Jul-29 05:31N 31°45' W 128°02'7110.1
2015-Jul-28 22:28N 31°07' W 126°52'31 9.9
2015-Jul-28 19:22N 30°51' W 126°21'10 9.8
2015-Jul-28 18:22N 30°46' W 126°12'11 9.8
2015-Jul-28 17:17N 30°40' W 126°01'10 9.4
2015-Jul-28 16:14N 30°35' W 125°51'7 9.5
2015-Jul-28 15:28N 30°32' W 125°44'9 9.4
2015-Jul-28 14:29N 30°27' W 125°35'9 9.5
2015-Jul-28 13:32N 30°23' W 125°26'9210.0
2015-Jul-28 04:18N 29°32' W 123°56'8 9.9
2015-Jul-28 03:30N 29°28' W 123°48'9 9.9
2015-Jul-28 02:34N 29°23' W 123°39'10 9.9
2015-Jul-28 01:33N 29°18' W 123°29'11 9.9
2015-Jul-28 00:29N 29°13' W 123°19'14110.2
2015-Jul-27 10:34N 27°57' W 121°03'5110.0
2015-Jul-27 05:28N 27°29' W 120°15'1210.8
2015-Jul-27 04:23N 27°22' W 120°04'910.5
2015-Jul-27 03:30N 27°17' W 119°55'1010.7
2015-Jul-27 02:32N 27°11' W 119°46'1110.8
2015-Jul-27 01:33N 27°05' W 119°36'1110.6
2015-Jul-27 00:32N 26°59' W 119°26'1110.5
2015-Jul-26 23:28N 26°52' W 119°16'1010.5
2015-Jul-26 22:33N 26°47' W 119°07'2210.3
2015-Jul-26 20:26N 26°34' W 118°47'910.2
2015-Jul-26 19:33N 26°29' W 118°39'10 9.9
2015-Jul-26 18:33N 26°23' W 118°31'1110.1
2015-Jul-26 17:28N 26°16' W 118°21'1110.1
2015-Jul-26 16:24N 26°10' W 118°11'910.0
2015-Jul-26 15:33N 26°05' W 118°04'  
Track history (hours):
 
Tides and Currents Weather Stations Pressure Air Temp Water Temp Dewpoint Dewpoint Depression Visibility Wind Speed Wind Dir Waves Ship Positions

Jury M

Last reported at 2015-Jul-31 02:21 UTC. Time now 2015-Aug-01 11:50 UTC.
Position N 35°34' W 136°07'.

Length 182 m; draft 11.8 m.

Type: Cargo ship. MMSI: 355723000.

Date/timePositionNaut miles runAvg speedWind from/ knotsBaromVisibWave heightAir tempDewpointWater temp
2015-Jul-31 02:21N 35°34' W 136°07'41810.4
2015-Jul-29 10:15N 32°09' W 128°48'36 9.7
2015-Jul-29 06:33N 31°50' W 128°12'10 9.7
2015-Jul-29 05:31N 31°45' W 128°02'7110.1
2015-Jul-28 22:28N 31°07' W 126°52'31 9.9
2015-Jul-28 19:22N 30°51' W 126°21'10 9.8
2015-Jul-28 18:22N 30°46' W 126°12'11 9.8
2015-Jul-28 17:17N 30°40' W 126°01'10 9.4
2015-Jul-28 16:14N 30°35' W 125°51'7 9.5
2015-Jul-28 15:28N 30°32' W 125°44'9 9.4
2015-Jul-28 14:29N 30°27' W 125°35'9 9.5
2015-Jul-28 13:32N 30°23' W 125°26'9210.0
2015-Jul-28 04:18N 29°32' W 123°56'8 9.9
2015-Jul-28 03:30N 29°28' W 123°48'9 9.9
2015-Jul-28 02:34N 29°23' W 123°39'10 9.9
2015-Jul-28 01:33N 29°18' W 123°29'11 9.9
2015-Jul-28 00:29N 29°13' W 123°19'14110.2
2015-Jul-27 10:34N 27°57' W 121°03'5110.0
2015-Jul-27 05:28N 27°29' W 120°15'1210.8
2015-Jul-27 04:23N 27°22' W 120°04'910.5
2015-Jul-27 03:30N 27°17' W 119°55'1010.7
2015-Jul-27 02:32N 27°11' W 119°46'1110.8
2015-Jul-27 01:33N 27°05' W 119°36'1110.6
2015-Jul-27 00:32N 26°59' W 119°26'1110.5
2015-Jul-26 23:28N 26°52' W 119°16'1010.5
2015-Jul-26 22:33N 26°47' W 119°07'2210.3
2015-Jul-26 20:26N 26°34' W 118°47'910.2
2015-Jul-26 19:33N 26°29' W 118°39'10 9.9
2015-Jul-26 18:33N 26°23' W 118°31'1110.1
2015-Jul-26 17:28N 26°16' W 118°21'1110.1
2015-Jul-26 16:24N 26°10' W 118°11'910.0
2015-Jul-26 15:33N 26°05' W 118°04'  

Dump ship's entire track history